Terminal Aerodrome Forecast
Issued by NWS Bismarck, ND

Home | Current Version | Previous Version | Text Only | Print | Product List | Glossary Off
Versions: 1 2 3 4 5 6 7 8 9 10 11 12 13 14 15 16 17 18 19 20 21 22 23

000
FTUS43 KBIS 190100 AAA
TAFBIS
TAF AMD
KBIS 190133Z 1902/1924 32024G34KT P6SM OVC025
     FM190600 31016KT P6SM OVC020
     FM191500 31016G24KT P6SM BKN025=

USA.gov is the U.S. government's official web portal to all federal, state and local government web resources and services.